Time;durP1;ratioP1;P1;durP2;ratioP2;P2;SDS_P1;SDS_P2;PMS_P1;PMS_P2;Temp;Humidity;BMP_temperature;BMP_pressure;BME280_temperature;BME280_humidity;BME280_pressure;Samples;Min_cycle;Max_cycle;Signal;HPM_P1;HPM_P2
2023/03/17 00:00:42;;;;;;;;;15.25;14.25;;;;;3.14;40.50;100031.91;5044473;28;8854;-76
2023/03/17 00:03:24;;;;;;;;;9.80;8.60;;;;;3.21;39.68;100032.91;5033724;28;8881;-75
2023/03/17 00:05:54;;;;;;;;;19.00;14.80;;;;;3.23;39.93;100032.94;5032387;28;8851;-79
2023/03/17 00:08:26;;;;;;;;;13.00;13.00;;;;;3.10;39.48;100030.09;5032238;28;8917;-79
2023/03/17 00:10:55;;;;;;;;;15.00;14.50;;;;;3.11;39.74;100036.16;5007851;28;8861;-77
2023/03/17 00:13:24;;;;;;;;;21.25;20.00;;;;;3.17;39.99;100034.56;5035695;28;8973;-78
2023/03/17 00:15:56;;;;;;;;;14.50;13.00;;;;;3.20;39.79;100037.22;5031115;28;9642;-75
2023/03/17 00:18:26;;;;;;;;;20.25;15.75;;;;;3.20;39.79;100033.72;5032045;28;8876;-75
2023/03/17 00:20:56;;;;;;;;;15.25;12.75;;;;;2.89;40.17;100037.53;5032588;28;8885;-74
2023/03/17 00:23:25;;;;;;;;;16.75;14.00;;;;;2.69;41.09;100042.34;5049793;28;8857;-74
2023/03/17 00:25:56;;;;;;;;;19.60;14.00;;;;;2.28;40.85;100039.78;5050882;28;8865;-78
2023/03/17 00:28:27;;;;;;;;;16.75;14.50;;;;;1.89;41.13;100049.34;5048824;28;8889;-76
2023/03/17 00:30:59;;;;;;;;;12.75;11.25;;;;;1.79;42.31;100045.69;5066301;28;8837;-75
2023/03/17 00:33:33;;;;;;;;;15.75;13.50;;;;;1.86;41.64;100049.25;5082926;28;8964;-75
2023/03/17 00:36:02;;;;;;;;;9.00;8.00;;;;;1.75;42.47;100040.41;5033398;28;8868;-76
2023/03/17 00:38:31;;;;;;;;;13.80;13.80;;;;;1.90;41.94;100045.94;5066101;28;9603;-75
2023/03/17 00:41:02;;;;;;;;;16.80;14.00;;;;;1.72;42.77;100041.19;5050245;28;8849;-76
2023/03/17 00:43:31;;;;;;;;;16.00;15.00;;;;;1.17;43.73;100043.31;5050108;28;8853;-76
2023/03/17 00:46:00;;;;;;;;;13.00;13.00;;;;;1.12;44.03;100051.81;5037153;28;8851;-76
2023/03/17 00:48:30;;;;;;;;;16.50;14.25;;;;;1.29;44.05;100049.66;5046614;28;8945;-76
2023/03/17 00:50:59;;;;;;;;;21.25;15.25;;;;;1.14;44.29;100040.66;5062891;28;8900;-76
2023/03/17 00:53:29;;;;;;;;;21.00;18.00;;;;;0.73;45.51;100045.59;5018342;28;8849;-79
2023/03/17 00:56:00;;;;;;;;;14.00;11.00;;;;;0.76;45.54;100039.63;5031252;28;8904;-76
2023/03/17 00:58:32;;;;;;;;;18.25;17.25;;;;;0.63;46.00;100043.59;5047660;28;8854;-75
2023/03/17 01:01:01;;;;;;;;;18.00;16.50;;;;;0.52;46.44;100032.97;5030263;28;8833;-78
2023/03/17 01:03:33;;;;;;;;;20.75;17.75;;;;;0.59;46.31;100046.94;5014854;28;8864;-78
2023/03/17 01:06:04;;;;;;;;;17.50;16.50;;;;;0.37;47.05;100040.28;5047393;28;8895;-74
2023/03/17 01:08:33;;;;;;;;;17.75;16.50;;;;;0.53;46.89;100041.59;4994184;28;8879;-75
2023/03/17 01:11:02;;;;;;;;;17.75;17.75;;;;;0.56;46.75;100036.53;5011715;28;8882;-77
2023/03/17 01:13:31;;;;;;;;;19.25;17.75;;;;;0.40;47.15;100041.25;5007802;28;9048;-73
2023/03/17 01:16:00;;;;;;;;;15.50;14.25;;;;;0.14;47.82;100045.69;5007791;28;8863;-75
2023/03/17 01:18:29;;;;;;;;;21.50;20.25;;;;;0.42;47.56;100039.56;5006516;28;9635;-74
2023/03/17 01:21:00;;;;;;;;;20.50;17.00;;;;;0.21;47.76;100034.66;4991401;28;8901;-75
2023/03/17 01:23:28;;;;;;;;;21.25;20.25;;;;;0.17;48.11;100047.47;5007239;28;8928;-75
2023/03/17 01:25:57;;;;;;;;;22.50;19.75;;;;;0.34;47.87;100045.38;5007867;28;8905;-75
2023/03/17 01:28:27;;;;;;;;;19.25;18.75;;;;;-0.03;48.78;100047.78;5026987;28;8876;-76
2023/03/17 01:30:56;;;;;;;;;24.75;22.50;;;;;0.04;48.76;100046.22;5010779;28;9602;-76
2023/03/17 01:33:25;;;;;;;;;21.25;21.25;;;;;-0.01;48.75;100040.03;4962392;28;8856;-75
2023/03/17 01:35:54;;;;;;;;;20.75;19.25;;;;;0.18;48.48;100039.78;5027171;28;8851;-78
2023/03/17 01:38:24;;;;;;;;;20.00;18.75;;;;;0.03;48.73;100040.19;4962243;28;8864;-75
2023/03/17 01:40:54;;;;;;;;;21.00;17.50;;;;;0.33;47.98;100035.84;5029879;28;8862;-74
2023/03/17 01:43:26;;;;;;;;;22.00;21.50;;;;;0.44;47.71;100034.44;5055070;28;8864;-75
2023/03/17 01:46:20;;;;;;;;;17.75;17.00;;;;;0.36;47.96;100025.59;5049287;28;8918;-77
2023/03/17 01:48:56;;;;;;;;;22.00;20.00;;;;;0.37;47.50;100029.94;5049565;28;8958;-75
2023/03/17 01:51:31;;;;;;;;;26.25;21.25;;;;;0.57;47.16;100031.34;5081205;28;8887;-75
2023/03/17 01:54:07;;;;;;;;;18.25;18.25;;;;;0.96;46.42;100025.53;5064654;28;9567;-77
2023/03/17 01:56:40;;;;;;;;;21.50;19.00;;;;;1.29;45.69;100019.44;5064352;28;8894;-74
2023/03/17 01:59:16;;;;;;;;;22.00;18.00;;;;;1.46;44.96;100016.38;5081480;28;8871;-76
2023/03/17 02:01:49;;;;;;;;;20.00;17.75;;;;;1.38;44.86;100024.84;5064767;28;8876;-75
2023/03/17 02:04:19;;;;;;;;;21.25;20.00;;;;;1.18;45.26;100021.78;5066315;28;8859;-74
2023/03/17 02:06:50;;;;;;;;;18.50;17.00;;;;;1.45;44.78;100025.88;5048341;28;8868;-77
2023/03/17 02:09:28;;;;;;;;;18.00;16.75;;;;;1.67;44.17;100022.06;5013298;28;8850;-78
2023/03/17 02:12:00;;;;;;;;;17.75;17.75;;;;;1.44;44.98;100026.72;5046518;28;8846;-76
2023/03/17 02:14:29;;;;;;;;;20.00;15.00;;;;;1.35;44.87;100023.91;5046559;28;8861;-77
2023/03/17 02:16:58;;;;;;;;;18.50;18.25;;;;;1.06;45.58;100034.41;5045972;28;8904;-76
2023/03/17 02:19:27;;;;;;;;;16.50;14.50;;;;;0.95;45.82;100034.13;5029451;28;8988;-76
2023/03/17 02:22:01;;;;;;;;;18.50;16.75;;;;;1.03;45.88;100029.16;5046374;28;8857;-75
2023/03/17 02:24:34;;;;;;;;;23.50;20.50;;;;;1.36;44.81;100021.34;5021814;28;8858;-76
2023/03/17 02:27:12;;;;;;;;;17.00;16.75;;;;;1.44;44.87;100024.13;5034801;28;8850;-77
2023/03/17 02:29:41;;;;;;;;;17.80;16.20;;;;;1.69;44.72;100022.09;5049290;28;8848;-75
2023/03/17 02:32:10;;;;;;;;;22.00;19.60;;;;;1.79;43.88;100019.75;5039790;28;8908;-74
2023/03/17 02:34:39;;;;;;;;;17.25;15.00;;;;;1.92;44.06;100025.19;5037062;28;8853;-76
2023/03/17 02:37:10;;;;;;;;;18.75;16.00;;;;;2.02;43.99;100020.25;5036339;28;8982;-78
2023/03/17 02:39:39;;;;;;;;;19.50;17.75;;;;;1.07;45.65;100032.69;5069391;28;8845;-75
2023/03/17 02:42:09;;;;;;;;;19.50;17.75;;;;;0.61;47.13;100040.09;5032274;28;8949;-75
2023/03/17 02:44:37;;;;;;;;;22.75;21.25;;;;;0.21;48.30;100042.41;5049895;28;8870;-75
2023/03/17 02:47:07;;;;;;;;;25.25;21.75;;;;;-0.02;48.56;100052.09;5067429;28;8955;-75
2023/03/17 02:49:36;;;;;;;;;16.00;15.25;;;;;-0.32;49.86;100058.06;5051201;28;9671;-74
2023/03/17 02:52:06;;;;;;;;;16.00;14.00;;;;;-0.36;50.33;100058.81;5067428;28;8862;-75
2023/03/17 02:54:36;;;;;;;;;23.00;20.50;;;;;0.02;49.51;100058.22;5052791;28;8865;-73
2023/03/17 02:57:06;;;;;;;;;20.00;20.00;;;;;-0.32;50.02;100062.34;5045550;28;8895;-75
2023/03/17 02:59:35;;;;;;;;;19.75;16.50;;;;;-0.54;50.30;100055.63;5018654;28;8973;-74
2023/03/17 03:02:04;;;;;;;;;17.00;16.50;;;;;-0.63;51.27;100053.63;5058953;28;8868;-76
2023/03/17 03:04:33;;;;;;;;;23.00;21.00;;;;;-0.93;52.09;100064.69;5062237;28;8862;-75
2023/03/17 03:07:02;;;;;;;;;22.50;16.75;;;;;-1.08;53.08;100074.50;5062081;28;8873;-74
2023/03/17 03:09:31;;;;;;;;;18.50;17.00;;;;;-1.30;53.93;100078.00;5012505;28;8872;-77
2023/03/17 03:12:02;;;;;;;;;21.25;21.00;;;;;-1.32;54.08;100077.09;5012246;28;9012;-74
2023/03/17 03:14:31;;;;;;;;;20.00;17.75;;;;;-1.23;53.96;100074.84;5004834;28;8876;-77
2023/03/17 03:17:00;;;;;;;;;21.25;19.75;;;;;-1.25;54.10;100079.06;4986532;28;8914;-77
2023/03/17 03:19:29;;;;;;;;;23.75;23.25;;;;;-0.98;53.05;100075.69;4986261;28;8859;-77
2023/03/17 03:21:58;;;;;;;;;20.00;19.75;;;;;-0.66;52.23;100073.31;4986426;28;8882;-74
2023/03/17 03:24:26;;;;;;;;;26.75;23.75;;;;;-0.58;52.08;100077.91;4953724;28;8879;-75
2023/03/17 03:26:55;;;;;;;;;25.75;22.25;;;;;-0.58;51.98;100069.25;4970065;28;8880;-75
2023/03/17 03:29:25;;;;;;;;;30.75;28.25;;;;;-0.13;50.44;100076.72;4972016;28;8895;-74
2023/03/17 03:31:54;;;;;;;;;26.00;23.50;;;;;0.13;50.17;100082.69;4973237;28;10251;-75
2023/03/17 03:34:23;;;;;;;;;28.25;25.50;;;;;0.35;49.33;100078.16;4968986;28;8851;-76
2023/03/17 03:36:52;;;;;;;;;27.00;24.00;;;;;0.61;48.68;100081.47;4986477;28;9737;-75
2023/03/17 03:39:21;;;;;;;;;23.25;22.50;;;;;0.82;48.37;100084.69;4986060;28;8907;-74
2023/03/17 03:41:50;;;;;;;;;26.00;24.25;;;;;0.83;47.96;100085.56;4969655;28;9608;-75
2023/03/17 03:44:19;;;;;;;;;21.00;21.00;;;;;0.63;48.11;100077.22;4969704;28;8842;-76
2023/03/17 03:46:49;;;;;;;;;29.50;26.50;;;;;0.20;48.89;100083.78;5006408;28;8857;-76
2023/03/17 03:49:18;;;;;;;;;29.50;27.00;;;;;-0.28;50.98;100087.44;5008586;28;8829;-74
2023/03/17 03:51:47;;;;;;;;;34.00;27.25;;;;;-0.62;51.97;100088.94;5043431;28;8975;-75
2023/03/17 03:54:16;;;;;;;;;26.75;25.25;;;;;-0.31;51.37;100097.72;5024705;28;8922;-74
2023/03/17 03:56:44;;;;;;;;;28.75;27.25;;;;;0.10;50.32;100097.22;5024801;28;8872;-74
2023/03/17 03:59:13;;;;;;;;;36.00;32.00;;;;;0.41;49.85;100088.69;5026056;28;8860;-77
2023/03/17 04:01:42;;;;;;;;;25.25;20.50;;;;;0.59;49.08;100089.19;5025034;28;8856;-76
2023/03/17 04:04:12;;;;;;;;;35.25;30.25;;;;;0.73;48.77;100092.19;5024866;28;8876;-75
2023/03/17 04:06:41;;;;;;;;;36.00;34.75;;;;;0.85;48.42;100087.34;5020853;28;8860;-76
2023/03/17 04:09:10;;;;;;;;;32.25;29.00;;;;;0.83;47.97;100088.13;5024838;28;8864;-76
2023/03/17 04:11:39;;;;;;;;;34.75;31.50;;;;;0.91;47.99;100089.22;5032751;28;9964;-74
2023/03/17 04:14:08;;;;;;;;;33.75;32.00;;;;;0.96;48.19;100095.44;4989063;28;8920;-76
2023/03/17 04:16:36;;;;;;;;;42.50;35.75;;;;;1.05;47.61;100098.25;4988598;28;8866;-74
2023/03/17 04:19:06;;;;;;;;;41.00;37.00;;;;;1.16;47.58;100101.16;4988681;28;8850;-75
2023/03/17 04:21:36;;;;;;;;;44.00;38.00;;;;;1.27;47.38;100105.72;4988483;28;8846;-75
2023/03/17 04:24:06;;;;;;;;;39.00;35.75;;;;;1.12;48.07;100101.00;5021819;28;8856;-75
2023/03/17 04:26:35;;;;;;;;;34.50;31.75;;;;;1.19;47.39;100113.28;5024781;28;8871;-76
2023/03/17 04:29:06;;;;;;;;;38.00;36.25;;;;;1.20;47.37;100107.25;4994765;28;8884;-75
2023/03/17 04:31:36;;;;;;;;;36.00;28.25;;;;;1.09;47.33;100111.28;5012015;28;8966;-76
2023/03/17 04:34:05;;;;;;;;;34.75;34.50;;;;;1.11;47.51;100115.69;5029529;28;8863;-75
2023/03/17 04:36:36;;;;;;;;;37.50;34.50;;;;;0.75;47.77;100115.53;5045735;28;8880;-76
2023/03/17 04:39:05;;;;;;;;;31.75;29.00;;;;;0.05;49.54;100122.94;5045923;28;8853;-75
2023/03/17 04:41:33;;;;;;;;;43.25;37.50;;;;;-0.32;51.33;100126.94;5012411;28;8895;-75
2023/03/17 04:44:02;;;;;;;;;49.25;43.75;;;;;0.02;50.38;100118.53;5030540;28;8877;-75
2023/03/17 04:46:32;;;;;;;;;38.75;35.25;;;;;0.35;49.63;100122.09;5050425;28;8945;-77
2023/03/17 04:49:01;;;;;;;;;50.75;42.50;;;;;0.56;48.95;100125.34;5065552;28;8895;-74
2023/03/17 04:51:30;;;;;;;;;55.75;44.25;;;;;0.70;48.55;100123.13;5049527;28;8880;-75
2023/03/17 04:54:01;;;;;;;;;45.50;39.00;;;;;0.84;48.69;100121.81;5065973;28;8856;-77
2023/03/17 04:56:30;;;;;;;;;41.50;37.25;;;;;0.95;48.02;100121.22;5064852;28;8864;-74
2023/03/17 04:59:00;;;;;;;;;40.75;35.75;;;;;1.01;47.91;100109.38;5016128;28;8867;-75
2023/03/17 05:01:29;;;;;;;;;38.00;33.00;;;;;1.11;47.54;100115.69;5045149;28;8867;-74
2023/03/17 05:03:58;;;;;;;;;53.75;46.75;;;;;1.15;47.53;100122.69;5012560;28;8860;-73
2023/03/17 05:06:26;;;;;;;;;85.33;64.67;;;;;1.22;47.73;100131.50;5079086;28;8894;-75
2023/03/17 05:08:55;;;;;;;;;48.50;44.25;;;;;1.28;47.75;100121.31;5049034;28;9121;-75
2023/03/17 05:11:25;;;;;;;;;36.00;34.00;;;;;1.38;47.18;100127.59;5050267;28;8861;-75
2023/03/17 05:13:55;;;;;;;;;37.75;33.25;;;;;1.46;47.35;100132.97;5031440;28;8856;-76
2023/03/17 05:16:24;;;;;;;;;38.25;35.50;;;;;1.49;47.07;100126.16;5070396;28;8856;-76
2023/03/17 05:18:54;;;;;;;;;40.50;36.75;;;;;1.54;46.63;100127.16;5032796;28;8888;-74
2023/03/17 05:21:22;;;;;;;;;37.50;32.50;;;;;1.53;46.63;100122.78;5049525;28;8849;-78
2023/03/17 05:23:51;;;;;;;;;46.50;39.50;;;;;1.64;46.86;100117.88;5049235;28;8891;-76
2023/03/17 05:26:22;;;;;;;;;37.00;32.50;;;;;1.64;46.77;100116.16;5065437;28;8873;-75
2023/03/17 05:28:52;;;;;;;;;41.00;38.00;;;;;1.62;46.41;100123.03;5048379;28;8902;-75
2023/03/17 05:31:21;;;;;;;;;39.25;36.75;;;;;1.65;46.13;100119.63;5047764;28;8910;-74
2023/03/17 05:33:50;;;;;;;;;38.50;37.75;;;;;1.72;46.14;100124.13;5049032;28;8871;-77
2023/03/17 05:36:20;;;;;;;;;40.25;36.00;;;;;1.74;46.38;100125.03;5081945;28;8849;-76
2023/03/17 05:38:49;;;;;;;;;35.75;31.50;;;;;1.85;46.14;100135.66;5081426;28;8861;-76
2023/03/17 05:41:18;;;;;;;;;31.00;29.00;;;;;1.93;46.04;100135.84;5049332;28;8894;-75
2023/03/17 05:43:47;;;;;;;;;38.50;31.25;;;;;1.79;45.73;100144.19;5048338;28;9623;-75
2023/03/17 05:46:17;;;;;;;;;41.50;35.50;;;;;1.80;46.02;100145.03;5049692;28;8849;-76
2023/03/17 05:48:48;;;;;;;;;73.25;61.00;;;;;1.87;45.63;100139.16;5064117;28;8857;-76
2023/03/17 05:51:17;;;;;;;;;38.75;36.25;;;;;2.03;45.51;100149.06;5065086;28;8837;-79
2023/03/17 05:53:46;;;;;;;;;32.75;28.50;;;;;2.15;45.72;100140.69;5031199;28;8868;-75
2023/03/17 05:56:15;;;;;;;;;35.00;33.25;;;;;2.26;45.11;100138.34;5030420;28;8865;-75
2023/03/17 05:58:44;;;;;;;;;44.75;36.00;;;;;2.30;44.92;100147.94;5031325;28;8865;-76
2023/03/17 06:01:13;;;;;;;;;106.25;85.00;;;;;1.98;44.92;100157.59;5047959;28;8876;-75
2023/03/17 06:03:43;;;;;;;;;38.75;35.00;;;;;1.72;45.81;100160.41;5048606;28;10098;-76
2023/03/17 06:06:12;;;;;;;;;48.50;42.00;;;;;1.84;45.28;100165.00;5081092;28;8942;-77
2023/03/17 06:08:41;;;;;;;;;48.00;43.25;;;;;2.08;44.69;100175.09;5031436;28;8896;-74
2023/03/17 06:11:10;;;;;;;;;33.00;29.75;;;;;2.21;44.55;100178.88;5081621;28;8892;-76
2023/03/17 06:13:39;;;;;;;;;43.25;30.50;;;;;2.44;44.77;100170.72;5047702;28;8923;-76
2023/03/17 06:16:08;;;;;;;;;35.00;33.50;;;;;2.57;44.08;100167.56;5047693;28;8857;-76
2023/03/17 06:18:37;;;;;;;;;39.25;36.25;;;;;2.79;43.98;100167.16;5013336;28;8862;-75
2023/03/17 06:21:07;;;;;;;;;34.75;31.00;;;;;2.81;43.57;100175.00;5016057;28;8957;-75
2023/03/17 06:23:37;;;;;;;;;37.25;34.75;;;;;3.01;42.75;100172.78;5026330;28;8844;-75
2023/03/17 06:26:08;;;;;;;;;39.25;33.00;;;;;3.22;42.57;100168.84;5029557;28;8889;-77
2023/03/17 06:28:37;;;;;;;;;39.25;36.75;;;;;3.38;42.36;100170.91;4950614;28;8892;-77
2023/03/17 06:31:07;;;;;;;;;37.25;31.75;;;;;3.54;42.09;100172.97;4911946;28;8918;-78
2023/03/17 06:33:36;;;;;;;;;38.50;37.00;;;;;3.64;42.19;100174.00;4986783;28;8840;-76
2023/03/17 06:36:07;;;;;;;;;40.25;39.25;;;;;3.76;41.60;100175.94;4953513;28;8904;-77
2023/03/17 06:38:36;;;;;;;;;41.50;36.75;;;;;3.90;40.96;100184.88;4986562;28;8872;-78
2023/03/17 06:41:05;;;;;;;;;41.75;35.75;;;;;3.79;40.66;100181.22;4986862;28;8875;-76
2023/03/17 06:43:35;;;;;;;;;33.00;29.75;;;;;3.75;41.37;100185.47;4970028;28;8840;-76
2023/03/17 06:46:04;;;;;;;;;38.50;37.75;;;;;3.67;40.08;100180.97;4954595;28;8860;-78
2023/03/17 06:48:33;;;;;;;;;37.00;29.00;;;;;3.33;41.23;100188.13;4970339;28;8938;-78
2023/03/17 06:51:03;;;;;;;;;31.25;27.00;;;;;2.52;42.61;100188.19;4994846;28;8901;-81
2023/03/17 06:53:33;;;;;;;;;26.50;26.00;;;;;2.12;43.06;100187.28;4973928;28;8878;-79
2023/03/17 06:56:03;;;;;;;;;33.00;32.50;;;;;1.20;45.23;100188.44;4988588;28;8869;-79
2023/03/17 06:58:33;;;;;;;;;44.75;35.75;;;;;2.01;44.54;100189.66;4944046;28;8877;-80
2023/03/17 07:01:03;;;;;;;;;33.25;32.00;;;;;1.82;44.69;100183.16;5037071;28;8820;-78
2023/03/17 07:03:32;;;;;;;;;34.00;33.00;;;;;1.59;44.95;100192.03;5017423;28;8850;-79
2023/03/17 07:06:00;;;;;;;;;32.75;30.75;;;;;2.13;44.76;100186.47;5028837;28;8931;-80
2023/03/17 07:08:29;;;;;;;;;33.25;30.50;;;;;2.23;43.91;100188.44;5013418;28;8905;-78
2023/03/17 07:11:00;;;;;;;;;28.50;28.25;;;;;1.60;44.97;100193.81;5011516;28;8857;-79
2023/03/17 07:13:34;;;;;;;;;21.75;18.00;;;;;1.67;44.44;100187.91;5030474;28;8872;-82
2023/03/17 07:16:03;;;;;;;;;29.75;27.25;;;;;1.44;44.79;100187.31;5048945;28;8874;-80
2023/03/17 07:18:32;;;;;;;;;28.75;27.25;;;;;1.83;44.12;100187.47;5038741;28;9075;-82
2023/03/17 07:21:02;;;;;;;;;37.50;32.25;;;;;1.89;44.14;100186.75;5045770;28;8870;-82
2023/03/17 07:23:30;;;;;;;;;35.25;32.00;;;;;1.99;44.30;100187.84;5036848;28;9635;-80
2023/03/17 07:26:01;;;;;;;;;29.00;28.25;;;;;2.49;43.39;100184.69;5035414;28;8943;-81
2023/03/17 07:28:30;;;;;;;;;24.25;24.25;;;;;2.91;42.50;100187.31;5029756;28;8862;-79
2023/03/17 07:31:01;;;;;;;;;27.25;26.00;;;;;3.41;42.49;100186.53;4998309;28;8874;-80
2023/03/17 07:33:32;;;;;;;;;30.25;30.25;;;;;3.83;41.42;100185.59;4990953;28;8878;-83
2023/03/17 07:36:01;;;;;;;;;27.50;26.75;;;;;3.18;41.09;100189.59;4991732;28;8859;-81
2023/03/17 07:38:30;;;;;;;;;32.25;28.75;;;;;3.39;41.10;100198.63;5024175;28;8881;-82
2023/03/17 07:41:02;;;;;;;;;37.25;32.25;;;;;3.21;40.57;100193.97;4996395;28;8968;-81
2023/03/17 07:43:32;;;;;;;;;35.00;33.00;;;;;3.59;41.12;100199.03;5007519;28;8893;-80
2023/03/17 07:46:01;;;;;;;;;29.50;29.50;;;;;4.03;39.90;100198.06;5020329;28;8883;-82
2023/03/17 07:48:36;;;;;;;;;23.50;23.50;;;;;3.79;40.14;100191.59;5004785;28;8854;-80
2023/03/17 07:51:06;;;;;;;;;30.00;28.50;;;;;3.51;40.97;100201.50;5006740;28;8999;-81
2023/03/17 07:53:35;;;;;;;;;19.75;13.25;;;;;2.76;42.15;100202.56;5023288;28;8894;-82
2023/03/17 07:56:06;;;;;;;;;31.25;29.25;;;;;2.84;42.50;100193.22;4996427;28;8865;-80
2023/03/17 07:58:35;;;;;;;;;30.75;29.00;;;;;2.80;42.74;100196.59;5007371;28;8885;-82
2023/03/17 08:01:04;;;;;;;;;78.75;62.75;;;;;2.85;42.10;100202.78;5006370;28;8846;-78
2023/03/17 08:03:35;;;;;;;;;34.25;33.50;;;;;2.30;43.69;100207.63;4989392;28;8862;-80
2023/03/17 08:06:08;;;;;;;;;24.00;21.25;;;;;2.52;43.69;100198.59;5021355;28;8903;-77
2023/03/17 08:08:37;;;;;;;;;32.25;29.00;;;;;2.42;45.35;100209.63;5039139;28;8869;-78
2023/03/17 08:11:07;;;;;;;;;28.00;27.50;;;;;3.08;43.32;100195.44;5005747;28;9703;-80
2023/03/17 08:13:37;;;;;;;;;28.75;22.50;;;;;3.66;41.75;100193.09;5008066;28;8862;-79
2023/03/17 08:16:06;;;;;;;;;32.50;28.50;;;;;4.13;41.13;100189.53;5005498;28;8996;-80
2023/03/17 08:18:36;;;;;;;;;31.75;31.75;;;;;4.00;40.41;100195.38;5011758;28;8905;-80
2023/03/17 08:21:07;;;;;;;;;37.00;30.00;;;;;4.00;40.38;100203.19;5010784;28;9596;-79
2023/03/17 08:23:36;;;;;;;;;43.25;41.25;;;;;2.79;42.81;100216.50;4994364;28;8854;-80
2023/03/17 08:26:07;;;;;;;;;37.25;34.00;;;;;3.00;42.74;100216.06;5009676;28;11442;-80
2023/03/17 08:28:36;;;;;;;;;36.00;31.75;;;;;3.57;42.00;100203.34;5020815;28;8919;-80
2023/03/17 08:31:11;;;;;;;;;38.50;32.50;;;;;3.26;41.65;100184.56;4984112;28;8902;-81
2023/03/17 08:33:41;;;;;;;;;32.50;29.25;;;;;3.20;42.25;100193.09;5013965;28;8879;-81
2023/03/17 08:36:11;;;;;;;;;31.25;29.25;;;;;3.35;42.93;100200.28;4996788;28;8856;-79
2023/03/17 08:38:41;;;;;;;;;36.25;33.00;;;;;4.02;41.43;100197.19;5028676;28;8876;-79
2023/03/17 08:41:14;;;;;;;;;37.25;33.25;;;;;4.52;40.73;100184.03;5026884;28;8872;-79
2023/03/17 08:43:44;;;;;;;;;32.50;31.00;;;;;4.82;40.34;100187.06;4996400;28;8891;-80
2023/03/17 08:46:15;;;;;;;;;38.00;31.75;;;;;5.28;39.75;100179.75;5012555;28;8860;-79
2023/03/17 08:48:48;;;;;;;;;25.25;21.25;;;;;5.67;38.70;100181.06;5023233;28;9445;-81
2023/03/17 08:51:17;;;;;;;;;28.25;25.50;;;;;4.31;40.34;100196.75;5030025;28;8852;-81
2023/03/17 08:53:51;;;;;;;;;26.25;26.25;;;;;4.51;39.78;100202.28;4996341;28;9039;-81
2023/03/17 08:56:22;;;;;;;;;31.50;26.50;;;;;4.95;39.29;100196.78;4980037;28;8880;-80
2023/03/17 08:58:51;;;;;;;;;28.50;27.25;;;;;4.96;39.05;100172.44;5031864;28;9465;-82
2023/03/17 09:01:21;;;;;;;;;33.75;33.00;;;;;4.59;39.21;100171.13;5030321;28;8998;-79
2023/03/17 09:03:51;;;;;;;;;38.50;33.75;;;;;4.47;41.03;100170.09;5030304;28;8847;-80
2023/03/17 09:06:21;;;;;;;;;35.25;32.50;;;;;5.20;39.64;100163.19;5031919;28;8855;-78
2023/03/17 09:08:54;;;;;;;;;30.75;28.50;;;;;5.34;39.45;100167.72;5031897;28;8867;-81
2023/03/17 09:11:27;;;;;;;;;33.00;28.25;;;;;5.00;39.66;100176.88;5031599;28;8867;-81
2023/03/17 09:13:57;;;;;;;;;32.75;30.50;;;;;5.37;38.84;100185.13;5036481;28;8844;-79
2023/03/17 09:16:26;;;;;;;;;39.75;37.50;;;;;4.48;40.20;100184.84;5041613;28;8942;-81
2023/03/17 09:18:55;;;;;;;;;36.75;34.25;;;;;3.97;41.98;100197.09;5020436;28;8870;-80
2023/03/17 09:21:24;;;;;;;;;29.75;29.50;;;;;4.11;41.16;100206.84;5042445;28;8904;-80
2023/03/17 09:23:53;;;;;;;;;39.00;35.00;;;;;3.71;42.15;100200.97;5000670;28;8868;-79
2023/03/17 09:26:25;;;;;;;;;26.00;22.25;;;;;3.51;42.47;100204.09;5053378;28;8854;-80
2023/03/17 09:28:55;;;;;;;;;39.25;31.25;;;;;4.31;41.31;100202.84;5062588;28;8902;-79
2023/03/17 09:31:23;;;;;;;;;30.50;29.25;;;;;4.74;40.97;100197.38;5029077;28;8894;-78
2023/03/17 09:33:53;;;;;;;;;32.25;29.50;;;;;4.93;40.33;100201.97;5029905;28;8845;-81
2023/03/17 09:36:23;;;;;;;;;36.25;34.50;;;;;3.90;42.01;100202.16;5048019;28;8951;-81
2023/03/17 09:38:52;;;;;;;;;29.75;26.00;;;;;3.69;42.97;100205.28;5030609;28;8854;-82
2023/03/17 09:41:39;;;;;;;;;35.50;31.50;;;;;3.48;42.96;100208.38;5030942;28;9159;-81
2023/03/17 09:44:17;;;;;;;;;24.75;24.50;;;;;4.47;42.27;100192.63;5028136;28;8892;-79
2023/03/17 09:46:58;;;;;;;;;32.50;30.00;;;;;4.45;42.10;100197.84;5029703;28;8878;-82
2023/03/17 09:49:35;;;;;;;;;31.75;27.00;;;;;4.87;40.89;100193.22;5024519;28;8874;-79
2023/03/17 09:52:05;;;;;;;;;32.75;31.25;;;;;4.55;41.21;100189.31;5053474;28;9781;-81
2023/03/17 09:54:36;;;;;;;;;30.50;27.50;;;;;4.88;41.14;100192.34;5029717;28;8876;-80
2023/03/17 09:57:15;;;;;;;;;24.50;22.50;;;;;5.59;40.42;100190.56;5010123;28;8894;-81
2023/03/17 09:59:46;;;;;;;;;24.75;24.75;;;;;6.00;39.79;100188.34;5028717;28;8863;-81
2023/03/17 10:02:21;;;;;;;;;28.50;26.50;;;;;6.40;39.06;100172.06;5026223;28;8864;-80
2023/03/17 10:04:51;;;;;;;;;50.00;39.75;;;;;5.71;39.26;100181.09;5026883;28;8844;-80
2023/03/17 10:07:25;;;;;;;;;35.75;31.50;;;;;6.21;39.34;100185.00;5010046;28;8860;-79
2023/03/17 10:10:01;;;;;;;;;30.75;30.25;;;;;6.08;38.65;100178.81;5027345;28;8856;-81
2023/03/17 10:12:46;;;;;;;;;34.25;28.25;;;;;6.25;38.16;100173.72;4993836;28;8880;-79
2023/03/17 10:15:21;;;;;;;;;30.50;27.25;;;;;6.52;38.12;100183.44;4986283;28;8882;-80
2023/03/17 10:17:52;;;;;;;;;28.50;27.75;;;;;5.52;39.51;100187.88;4971389;28;8874;-81
2023/03/17 10:20:26;;;;;;;;;28.75;27.75;;;;;6.01;39.56;100186.59;4965733;28;8877;-79
2023/03/17 10:22:58;;;;;;;;;39.25;30.50;;;;;6.47;38.83;100179.06;4987449;28;8882;-79
2023/03/17 10:25:30;;;;;;;;;34.25;30.00;;;;;6.39;37.14;100184.25;4986524;28;8979;-80
2023/03/17 10:28:06;;;;;;;;;29.00;25.00;;;;;6.24;35.79;100181.53;4970782;28;8854;-78
2023/03/17 10:30:37;;;;;;;;;25.50;23.50;;;;;6.44;36.00;100181.69;4986422;28;8870;-80
2023/03/17 10:33:07;;;;;;;;;25.20;21.00;;;;;5.33;37.61;100178.13;4979902;28;9020;-80
2023/03/17 10:35:38;;;;;;;;;25.20;23.80;;;;;5.46;37.96;100184.34;5019009;28;9056;-80
2023/03/17 10:38:16;;;;;;;;;24.75;21.25;;;;;5.27;38.71;100178.91;4991997;28;8869;-80
2023/03/17 10:40:47;;;;;;;;;20.60;20.00;;;;;5.33;38.04;100176.38;5006788;28;8932;-81
2023/03/17 10:43:20;;;;;;;;;23.80;22.60;;;;;5.04;38.67;100183.84;4990150;28;8909;-80
2023/03/17 10:46:01;;;;;;;;;20.80;19.00;;;;;5.78;38.05;100176.81;5012671;28;8843;-81
2023/03/17 10:48:34;;;;;;;;;20.00;17.75;;;;;6.31;36.86;100170.28;5044448;28;8985;-79
2023/03/17 10:51:08;;;;;;;;;15.40;14.80;;;;;5.96;35.80;100175.22;5060902;28;8925;-80
2023/03/17 10:53:42;;;;;;;;;26.50;22.50;;;;;5.72;36.63;100174.19;5028042;28;8990;-79
2023/03/17 10:56:22;;;;;;;;;25.60;20.80;;;;;6.25;36.04;100163.28;5028406;28;8867;-80
2023/03/17 10:58:55;;;;;;;;;21.00;17.60;;;;;5.97;36.84;100164.81;5011400;28;8867;-81
2023/03/17 11:01:29;;;;;;;;;21.50;21.50;;;;;6.51;36.38;100162.53;5027967;28;8863;-80
2023/03/17 11:04:01;;;;;;;;;16.00;15.00;;;;;7.12;35.64;100153.25;5028455;28;8898;-80
2023/03/17 11:06:38;;;;;;;;;32.75;26.50;;;;;6.78;35.55;100155.72;5028620;28;8859;-80
2023/03/17 11:09:09;;;;;;;;;20.75;17.25;;;;;6.92;36.36;100155.81;5029282;28;8968;-82
2023/03/17 11:11:44;;;;;;;;;22.80;21.40;;;;;6.97;34.84;100147.13;5030900;28;8980;-82
2023/03/17 11:14:17;;;;;;;;;20.80;18.40;;;;;6.83;34.88;100139.22;5025959;28;8858;-81
2023/03/17 11:16:53;;;;;;;;;26.20;19.00;;;;;7.33;33.13;100142.88;5029936;28;10180;-80
2023/03/17 11:19:29;;;;;;;;;10.20;10.00;;;;;6.32;31.93;100138.06;5026344;28;8884;-80
2023/03/17 11:22:06;;;;;;;;;19.00;17.20;;;;;6.67;33.25;100132.16;5010554;28;8904;-81
2023/03/17 11:24:41;;;;;;;;;15.20;13.80;;;;;6.38;32.89;100134.59;5002819;28;8900;-81
2023/03/17 11:27:18;;;;;;;;;21.60;20.60;;;;;6.82;33.48;100133.97;4987038;28;8893;-82
2023/03/17 11:30:09;;;;;;;;;22.00;20.20;;;;;7.27;33.04;100127.16;4999929;28;9007;-81
2023/03/17 11:32:49;;;;;;;;;17.00;15.80;;;;;8.02;32.92;100119.34;5004343;28;8865;-80
2023/03/17 11:35:54;;;;;;;;;18.20;17.40;;;;;8.69;31.55;100113.97;5006320;28;8853;-80
2023/03/17 11:38:27;;;;;;;;;18.60;16.00;;;;;9.27;31.04;100100.50;4959706;28;8874;-82
2023/03/17 11:41:10;;;;;;;;;28.40;23.60;;;;;8.56;30.68;100102.66;4933172;28;8888;-81